Time;durP1;ratioP1;P1;durP2;ratioP2;P2;SDS_P1;SDS_P2;PMS_P1;PMS_P2;Temp;Humidity;BMP_temperature;BMP_pressure;BME280_temperature;BME280_humidity;BME280_pressure;Samples;Min_cycle;Max_cycle;Signal;HPM_P1;HPM_P2
2021/04/10 00:01:49;;;;;;;11.50;5.65;;;;;;;3.93;54.41;98430.38;114829;1200;23162;-75
2021/04/10 00:04:16;;;;;;;12.00;6.05;;;;;;;3.91;54.25;98427.06;115031;1199;23103;-75
2021/04/10 00:06:44;;;;;;;8.65;4.45;;;;;;;3.90;53.63;98415.46;114833;1202;26528;-75
2021/04/10 00:09:11;;;;;;;9.57;4.37;;;;;;;3.93;54.19;98417.76;115059;1201;23106;-75
2021/04/10 00:11:38;;;;;;;9.00;5.00;;;;;;;3.93;53.69;98419.59;115076;1202;23102;-75
2021/04/10 00:14:11;;;;;;;8.67;4.40;;;;;;;3.95;53.65;98421.07;115060;1202;23253;-75
2021/04/10 00:16:38;;;;;;;7.90;4.53;;;;;;;3.97;53.81;98413.61;115078;1202;23125;-75
2021/04/10 00:19:05;;;;;;;8.40;4.30;;;;;;;4.02;53.98;98410.32;114778;1200;23157;-75
2021/04/10 00:21:32;;;;;;;9.17;4.83;;;;;;;4.06;53.97;98408.86;114856;1199;27361;-75
2021/04/10 00:23:59;;;;;;;10.25;4.90;;;;;;;4.10;53.58;98411.98;115034;1202;23161;-75
2021/04/10 00:26:26;;;;;;;7.15;4.30;;;;;;;4.13;53.72;98406.19;114801;1200;23132;-75
2021/04/10 00:28:53;;;;;;;7.87;4.37;;;;;;;4.17;53.22;98405.56;115086;1202;23112;-75
2021/04/10 00:31:20;;;;;;;9.65;4.80;;;;;;;4.21;53.45;98408.67;115020;1199;23098;-75
2021/04/10 00:33:47;;;;;;;6.77;3.90;;;;;;;4.26;52.58;98406.19;115036;1202;24774;-75
2021/04/10 00:36:15;;;;;;;9.00;4.40;;;;;;;4.28;52.89;98409.51;115048;1202;23160;-75
2021/04/10 00:38:42;;;;;;;9.10;4.20;;;;;;;4.30;53.47;98402.07;115081;1202;24720;-75
2021/04/10 00:41:12;;;;;;;8.60;4.40;;;;;;;4.31;53.66;98406.41;114934;1200;24747;-75
2021/04/10 00:43:40;;;;;;;9.00;4.67;;;;;;;4.33;53.78;98407.03;115079;1202;23106;-75
2021/04/10 00:46:08;;;;;;;10.20;5.47;;;;;;;4.35;53.76;98399.56;115075;1202;23090;-75
2021/04/10 00:48:35;;;;;;;9.15;4.85;;;;;;;4.35;53.82;98396.05;115044;1202;23102;-75
2021/04/10 00:51:03;;;;;;;11.30;5.43;;;;;;;4.37;54.26;98399.36;114864;1198;27250;-76
2021/04/10 00:53:32;;;;;;;10.15;5.95;;;;;;;4.35;54.87;98396.86;115191;1202;27220;-75
2021/04/10 00:56:03;;;;;;;9.27;5.20;;;;;;;4.31;54.91;98392.93;115059;1200;23094;-75
2021/04/10 00:58:34;;;;;;;12.60;5.35;;;;;;;4.31;54.83;98400.20;115111;1200;23101;-75
2021/04/10 01:01:04;;;;;;;10.00;5.30;;;;;;;4.30;54.72;98390.44;115086;1202;23102;-75
2021/04/10 01:03:32;;;;;;;13.13;5.70;;;;;;;4.28;54.74;98393.34;115074;1200;23103;-75
2021/04/10 01:05:59;;;;;;;13.10;6.50;;;;;;;4.26;54.60;98386.50;115044;1202;23235;-75
2021/04/10 01:08:28;;;;;;;8.85;5.65;;;;;;;4.26;54.96;98391.89;115056;1202;23216;-75
2021/04/10 01:11:25;;;;;;;11.65;6.03;;;;;;;4.24;54.51;98389.40;115114;1202;23117;-76
2021/04/10 01:14:04;;;;;;;12.93;6.57;;;;;;;4.24;53.95;98392.09;115046;1201;23179;-75
2021/04/10 01:16:39;;;;;;;12.38;5.98;;;;;;;4.22;53.93;98388.78;115086;1199;23340;-75
2021/04/10 01:19:39;;;;;;;11.50;5.43;;;;;;;4.19;54.04;98392.70;114807;1200;25955;-75
2021/04/10 01:22:29;;;;;;;12.47;5.57;;;;;;;4.19;53.70;98391.88;115103;1200;23093;-75
2021/04/10 01:25:00;;;;;;;12.87;5.50;;;;;;;4.17;53.91;98384.00;114768;1202;23091;-75
2021/04/10 01:27:51;;;;;;;10.77;5.50;;;;;;;4.16;54.06;98384.20;114791;1201;23098;-76
2021/04/10 01:30:20;;;;;;;10.45;5.45;;;;;;;4.11;54.24;98387.53;115113;1200;23090;-75
2021/04/10 01:33:04;;;;;;;7.23;4.33;;;;;;;4.10;54.03;98390.42;115186;1200;24744;-75
2021/04/10 01:35:43;;;;;;;10.47;5.33;;;;;;;4.07;53.51;98388.13;115089;1202;23150;-75
2021/04/10 01:38:15;;;;;;;9.88;4.70;;;;;;;4.06;53.41;98384.61;114813;1200;23093;-75
2021/04/10 01:40:47;;;;;;;9.35;4.15;;;;;;;4.04;53.59;98383.99;114986;1202;23241;-75
2021/04/10 01:43:16;;;;;;;9.47;4.57;;;;;;;4.03;53.83;98373.42;115085;1202;23108;-75
2021/04/10 01:45:44;;;;;;;7.77;4.87;;;;;;;4.01;53.60;98381.70;114890;1200;24781;-75
2021/04/10 01:48:14;;;;;;;8.53;4.83;;;;;;;3.99;53.35;98379.20;114821;1202;23089;-75
2021/04/10 01:50:42;;;;;;;10.17;4.90;;;;;;;3.98;53.18;98372.17;114831;1199;25959;-75
2021/04/10 01:53:11;;;;;;;9.50;4.70;;;;;;;3.99;53.22;98375.69;115063;1202;23077;-75
2021/04/10 01:55:41;;;;;;;7.68;4.55;;;;;;;3.97;53.34;98366.98;115108;1202;26016;-75
2021/04/10 01:58:12;;;;;;;10.83;4.80;;;;;;;3.97;54.11;98370.50;114858;1199;23318;-75
2021/04/10 02:00:41;;;;;;;8.57;4.97;;;;;;;3.95;54.07;98366.37;114809;1202;23128;-75
2021/04/10 02:03:11;;;;;;;8.78;4.63;;;;;;;3.93;54.20;98369.27;114831;1200;23143;-75
2021/04/10 02:05:39;;;;;;;11.90;5.07;;;;;;;3.91;54.18;98365.09;114886;1202;24787;-75
2021/04/10 02:08:25;;;;;;;8.77;4.87;;;;;;;3.90;53.91;98366.15;114920;1202;23089;-75
2021/04/10 02:10:55;;;;;;;8.35;4.95;;;;;;;3.88;54.18;98370.88;115057;1202;23093;-75
2021/04/10 02:13:42;;;;;;;11.27;4.80;;;;;;;3.87;54.43;98359.29;115010;1199;23090;-75
2021/04/10 02:16:10;;;;;;;;;;;;;;;3.87;54.53;98359.29;115135;1200;23167;-75
2021/04/10 02:18:41;;;;;;;7.67;5.50;;;;;;;3.86;54.60;98363.03;115079;1202;21593;-75
2021/04/10 02:21:11;;;;;;;10.10;4.73;;;;;;;3.85;54.55;98361.36;114813;1200;24542;-75
2021/04/10 02:23:40;;;;;;;8.20;4.60;;;;;;;3.85;54.24;98355.97;115142;1200;23321;-75
2021/04/10 02:26:11;;;;;;;10.70;4.95;;;;;;;3.87;54.35;98361.16;114778;1200;26002;-75
2021/04/10 02:28:38;;;;;;;9.90;4.97;;;;;;;3.88;54.71;98357.41;115001;1202;23093;-75
2021/04/10 02:31:06;;;;;;;8.37;4.37;;;;;;;3.88;54.71;98357.41;115044;1201;23090;-75
2021/04/10 02:33:40;;;;;;;8.27;5.00;;;;;;;3.87;54.39;98359.29;115058;1202;23077;-75
2021/04/10 02:36:11;;;;;;;8.47;4.53;;;;;;;3.90;54.51;98360.76;114793;1202;23116;-75
2021/04/10 02:38:41;;;;;;;7.35;4.10;;;;;;;3.94;54.30;98364.70;115075;1201;23074;-75
2021/04/10 02:41:16;;;;;;;6.77;3.83;;;;;;;3.94;53.85;98359.31;115036;1202;23100;-75
2021/04/10 02:43:52;;;;;;;7.33;4.30;;;;;;;3.96;54.42;98359.93;114797;1202;23103;-75
2021/04/10 02:46:22;;;;;;;7.57;4.13;;;;;;;3.98;54.42;98366.78;115084;1200;27240;-75
2021/04/10 02:49:02;;;;;;;7.93;4.27;;;;;;;3.99;54.88;98354.14;114856;1202;23093;-75
2021/04/10 02:51:41;;;;;;;8.57;4.20;;;;;;;4.01;55.04;98362.02;114864;1202;23217;-75
2021/04/10 02:54:12;;;;;;;5.45;4.28;;;;;;;4.01;54.79;98356.63;114795;1200;26204;-75
2021/04/10 02:56:45;;;;;;;8.05;4.35;;;;;;;4.02;54.88;98356.43;114898;1200;23170;-75
2021/04/10 02:59:13;;;;;;;8.75;3.90;;;;;;;4.02;55.20;98359.13;115060;1201;23093;-75
2021/04/10 03:01:41;;;;;;;8.93;3.43;;;;;;;4.03;55.02;98354.55;115127;1200;26016;-75
2021/04/10 03:04:10;;;;;;;7.88;3.80;;;;;;;4.02;55.11;98351.04;114855;1199;23101;-75
2021/04/10 03:06:39;;;;;;;7.33;3.45;;;;;;;4.01;54.51;98349.37;115092;1199;23140;-75
2021/04/10 03:09:07;;;;;;;7.20;3.70;;;;;;;4.02;54.70;98351.04;114812;1202;23133;-75
2021/04/10 03:11:35;;;;;;;9.40;3.90;;;;;;;4.00;55.46;98358.47;114865;1203;23345;-75
2021/04/10 03:14:05;;;;;;;6.25;3.90;;;;;;;3.98;55.34;98350.63;115050;1202;27045;-75
2021/04/10 03:16:34;;;;;;;11.00;4.00;;;;;;;3.99;55.05;98356.83;114822;1202;26083;-75
2021/04/10 03:19:09;;;;;;;7.30;3.80;;;;;;;3.98;54.91;98361.40;115035;1202;23231;-75
2021/04/10 03:21:40;;;;;;;6.97;3.77;;;;;;;3.96;55.27;98355.36;114796;1202;23089;-75
2021/04/10 03:24:10;;;;;;;7.55;3.80;;;;;;;3.94;55.70;98359.31;114778;1202;23561;-75
2021/04/10 03:26:38;;;;;;;8.73;4.13;;;;;;;3.93;55.73;98353.09;115108;1202;23089;-75
2021/04/10 03:29:07;;;;;;;7.37;3.90;;;;;;;3.93;55.73;98354.94;115175;1202;23100;-75
2021/04/10 03:31:38;;;;;;;9.00;4.30;;;;;;;3.91;55.87;98357.86;114789;1200;23136;-75
2021/04/10 03:34:06;;;;;;;10.07;4.37;;;;;;;3.91;55.84;98355.17;115017;1201;26016;-75
2021/04/10 03:36:34;;;;;;;7.85;4.40;;;;;;;3.90;55.82;98358.06;114895;1202;26227;-75
2021/04/10 03:39:01;;;;;;;7.35;4.15;;;;;;;3.90;55.70;98364.27;115153;1202;23152;-75
2021/04/10 03:41:29;;;;;;;9.33;4.20;;;;;;;3.89;55.66;98365.30;115080;1200;23086;-75
2021/04/10 03:43:57;;;;;;;8.03;4.77;;;;;;;3.89;55.43;98364.48;114812;1199;23086;-75
2021/04/10 03:46:24;;;;;;;9.35;4.65;;;;;;;3.87;56.26;98361.98;115047;1201;23112;-75
2021/04/10 03:48:53;;;;;;;10.43;4.23;;;;;;;3.86;56.00;98367.57;115065;1200;26373;-75
2021/04/10 03:51:24;;;;;;;7.17;4.07;;;;;;;3.86;56.81;98368.42;114854;1202;23224;-76
2021/04/10 03:53:57;;;;;;;9.33;3.93;;;;;;;3.85;55.63;98372.14;114823;1202;23089;-76
2021/04/10 03:56:26;;;;;;;6.65;3.80;;;;;;;3.86;55.89;98362.19;115042;1202;23102;-75
2021/04/10 03:58:54;;;;;;;7.03;4.30;;;;;;;3.85;56.13;98358.67;115041;1201;23089;-75
2021/04/10 04:01:32;;;;;;;6.58;4.18;;;;;;;3.84;56.08;98365.08;115082;1202;23231;-75
2021/04/10 04:03:59;;;;;;;8.90;4.90;;;;;;;3.83;56.64;98363.44;114968;1202;23086;-75
2021/04/10 04:06:26;;;;;;;9.10;4.13;;;;;;;3.83;56.35;98360.73;114750;1199;23108;-75
2021/04/10 04:08:53;;;;;;;8.10;3.97;;;;;;;3.82;56.11;98356.38;115021;1200;23087;-75
2021/04/10 04:11:20;;;;;;;10.27;4.30;;;;;;;3.82;56.49;98363.63;115006;1202;24676;-75
2021/04/10 04:13:47;;;;;;;8.30;4.07;;;;;;;3.86;56.05;98372.95;115110;1202;27201;-75
2021/04/10 04:16:13;;;;;;;6.03;3.83;;;;;;;3.86;56.77;98363.03;115038;1200;23093;-75
2021/04/10 04:18:40;;;;;;;12.27;4.60;;;;;;;3.87;56.73;98359.29;114826;1202;23093;-75
2021/04/10 04:21:07;;;;;;;8.60;4.60;;;;;;;3.88;56.47;98366.34;114813;1200;23106;-75
2021/04/10 04:23:34;;;;;;;8.75;4.15;;;;;;;3.88;56.52;98368.19;115068;1201;25987;-75
2021/04/10 04:26:01;;;;;;;8.85;3.70;;;;;;;3.91;56.49;98368.64;114801;1202;23115;-75
2021/04/10 04:28:27;;;;;;;8.17;4.50;;;;;;;3.96;56.89;98358.05;114864;1202;24558;-75
2021/04/10 04:30:57;;;;;;;8.45;4.05;;;;;;;3.99;57.09;98373.81;114729;1200;23128;-75
2021/04/10 04:33:24;;;;;;;;;;;;;;;4.02;57.84;98374.44;115096;1205;23086;-75
2021/04/10 04:35:50;;;;;;;9.73;4.17;;;;;;;4.01;57.87;98387.09;115048;1199;21672;-75
2021/04/10 04:38:17;;;;;;;11.97;6.10;;;;;;;3.96;58.93;98381.48;115056;1201;23231;-75
2021/04/10 04:40:44;;;;;;;14.53;6.23;;;;;;;3.87;58.91;98380.02;114964;1200;24771;-75
2021/04/10 04:43:11;;;;;;;12.23;5.63;;;;;;;3.84;59.06;98392.02;115021;1202;23086;-75
2021/04/10 04:45:38;;;;;;;11.50;6.00;;;;;;;3.78;59.21;98385.58;115013;1200;23231;-75
2021/04/10 04:48:06;;;;;;;11.70;5.80;;;;;;;3.80;58.81;98396.16;114897;1203;26329;-75
2021/04/10 04:50:32;;;;;;;8.45;4.40;;;;;;;3.79;58.59;98383.73;114867;1202;23108;-75
2021/04/10 04:53:00;;;;;;;10.15;5.95;;;;;;;3.78;58.68;98393.66;115113;1200;23890;-75
2021/04/10 04:55:26;;;;;;;11.20;5.40;;;;;;;3.81;59.09;98397.83;115239;1200;23232;-75
2021/04/10 04:57:53;;;;;;;10.30;5.87;;;;;;;3.85;59.06;98390.99;114952;1200;23103;-75
2021/04/10 05:00:21;;;;;;;9.50;5.43;;;;;;;3.90;59.44;98393.09;114934;1202;23090;-75
2021/04/10 05:02:50;;;;;;;10.97;5.27;;;;;;;3.94;58.97;98391.64;115088;1202;23086;-75
2021/04/10 05:05:17;;;;;;;8.95;5.40;;;;;;;3.99;59.88;98398.06;115070;1200;23077;-76
2021/04/10 05:07:44;;;;;;;9.97;5.30;;;;;;;4.04;58.08;98400.16;114989;1199;23086;-75
2021/04/10 05:10:11;;;;;;;10.80;5.23;;;;;;;4.08;59.09;98404.09;114919;1202;24585;-75
2021/04/10 05:12:38;;;;;;;11.30;5.90;;;;;;;4.11;58.69;98400.18;115267;1202;23110;-75
2021/04/10 05:15:06;;;;;;;14.60;5.60;;;;;;;4.14;58.69;98419.47;115145;1200;23539;-75
2021/04/10 05:17:33;;;;;;;8.90;4.47;;;;;;;4.20;58.36;98412.42;115284;1200;23123;-75
2021/04/10 05:20:00;;;;;;;9.70;4.75;;;;;;;4.24;58.01;98413.66;115127;1198;23116;-76
2021/04/10 05:22:27;;;;;;;10.77;4.77;;;;;;;4.31;58.74;98417.19;114982;1199;24224;-76
2021/04/10 05:24:53;;;;;;;9.63;5.07;;;;;;;4.36;58.87;98419.28;115111;1202;23089;-75
2021/04/10 05:27:20;;;;;;;10.37;5.33;;;;;;;4.44;59.63;98423.63;115146;1202;26573;-76
2021/04/10 05:29:47;;;;;;;13.70;5.47;;;;;;;4.49;59.06;98421.97;115255;1202;27246;-75
2021/04/10 05:32:29;;;;;;;11.13;4.93;;;;;;;4.57;57.94;98418.27;114932;1200;23102;-76
2021/04/10 05:34:55;;;;;;;8.80;5.10;;;;;;;4.64;57.76;98415.54;115247;1201;23109;-75
2021/04/10 05:37:22;;;;;;;10.20;4.80;;;;;;;4.71;59.39;98417.22;115115;1199;22893;-75
2021/04/10 05:39:49;;;;;;;15.13;6.30;;;;;;;4.77;57.53;98423.64;115025;1199;27223;-76
2021/04/10 05:42:16;;;;;;;10.80;5.80;;;;;;;4.86;56.58;98421.56;114959;1202;23090;-75
2021/04/10 05:44:43;;;;;;;11.10;6.20;;;;;;;4.95;56.10;98425.70;114863;1202;26601;-75
2021/04/10 05:47:09;;;;;;;11.15;6.15;;;;;;;5.04;56.87;98418.22;114880;1203;25029;-76
2021/04/10 05:49:36;;;;;;;11.33;5.10;;;;;;;5.12;57.51;98426.92;115096;1200;26079;-76
2021/04/10 05:52:04;;;;;;;13.35;5.65;;;;;;;5.22;58.45;98425.65;115217;1200;23207;-76
2021/04/10 05:54:31;;;;;;;8.93;5.37;;;;;;;5.31;58.42;98418.97;115180;1200;23880;-76
2021/04/10 05:56:58;;;;;;;12.80;6.47;;;;;;;5.40;59.74;98423.13;115234;1201;23081;-76
2021/04/10 05:59:24;;;;;;;13.30;6.50;;;;;;;5.50;59.28;98428.88;115208;1202;23098;-76
2021/04/10 06:01:51;;;;;;;10.13;5.40;;;;;;;5.61;58.44;98421.16;115270;1202;27313;-76
2021/04/10 06:04:18;;;;;;;10.43;5.87;;;;;;;5.70;57.72;98425.28;115041;1200;23146;-75
2021/04/10 06:06:45;;;;;;;14.63;6.83;;;;;;;5.82;58.77;98428.14;115108;1200;26750;-76
2021/04/10 06:09:13;;;;;;;12.63;6.63;;;;;;;5.95;59.42;98438.05;114933;1201;23085;-76
2021/04/10 06:11:40;;;;;;;12.73;6.73;;;;;;;6.09;60.25;98431.56;115120;1199;23086;-76
2021/04/10 06:14:07;;;;;;;12.80;7.40;;;;;;;6.19;60.04;98433.81;115098;1202;23231;-76
2021/04/10 06:16:34;;;;;;;15.13;7.63;;;;;;;6.31;59.86;98436.66;115188;1200;23245;-76
2021/04/10 06:19:01;;;;;;;14.15;7.20;;;;;;;6.43;59.44;98437.62;114936;1197;26296;-76
2021/04/10 06:21:28;;;;;;;16.30;7.97;;;;;;;6.54;58.59;98441.49;115250;1200;24527;-76
2021/04/10 06:23:55;;;;;;;17.33;8.83;;;;;;;6.62;59.22;98442.05;115217;1202;23093;-76
2021/04/10 06:26:22;;;;;;;14.77;7.87;;;;;;;6.71;58.07;98434.50;114952;1199;23097;-76
2021/04/10 06:28:49;;;;;;;13.50;7.50;;;;;;;6.79;57.11;98431.49;114931;1202;23259;-76
2021/04/10 06:31:16;;;;;;;12.07;7.07;;;;;;;6.88;56.67;98436.64;115226;1201;23085;-76
2021/04/10 06:33:43;;;;;;;14.50;7.20;;;;;;;6.99;55.45;98435.91;114982;1202;23081;-76
2021/04/10 06:36:09;;;;;;;10.70;6.15;;;;;;;7.08;54.89;98431.03;114911;1200;23090;-76
2021/04/10 06:38:37;;;;;;;13.10;6.90;;;;;;;7.16;54.80;98439.70;115142;1199;23112;-76
2021/04/10 06:41:05;;;;;;;14.75;6.90;;;;;;;7.26;54.35;98444.63;115163;1202;26570;-76
2021/04/10 06:43:32;;;;;;;10.95;5.40;;;;;;;7.38;53.90;98445.53;115169;1202;23088;-76
2021/04/10 06:45:59;;;;;;;15.63;6.10;;;;;;;7.50;53.70;98447.48;115227;1199;24027;-76
2021/04/10 06:48:28;;;;;;;11.55;5.70;;;;;;;7.61;53.52;98446.73;115112;1199;23093;-76
2021/04/10 06:50:59;;;;;;;11.30;5.03;;;;;;;7.71;53.16;98436.19;115273;1201;23113;-75
2021/04/10 06:53:29;;;;;;;11.80;4.75;;;;;;;7.83;52.88;98444.39;114890;1202;23085;-75
2021/04/10 06:55:59;;;;;;;13.75;4.93;;;;;;;7.93;52.65;98439.27;115064;1202;23087;-75
2021/04/10 06:58:43;;;;;;;9.00;4.80;;;;;;;8.04;52.69;98444.95;115245;1198;23082;-75
2021/04/10 07:01:12;;;;;;;9.30;4.50;;;;;;;8.16;51.51;98443.97;115223;1201;24545;-75
2021/04/10 07:03:42;;;;;;;10.57;6.03;;;;;;;8.27;51.56;98445.06;115012;1200;26169;-75
2021/04/10 07:06:14;;;;;;;8.47;4.80;;;;;;;8.38;50.92;98442.63;115157;1202;23250;-75
2021/04/10 07:08:41;;;;;;;10.73;4.77;;;;;;;8.49;51.19;98445.39;114883;1199;23111;-75
2021/04/10 07:11:09;;;;;;;8.70;4.57;;;;;;;8.63;50.46;98450.63;114899;1200;23146;-75
2021/04/10 07:13:36;;;;;;;8.87;4.33;;;;;;;8.73;50.64;98440.03;115182;1202;23105;-75
2021/04/10 07:16:03;;;;;;;9.35;4.70;;;;;;;8.84;49.93;98444.64;115195;1202;26570;-75
2021/04/10 07:18:31;;;;;;;7.30;3.87;;;;;;;8.96;49.05;98447.38;115125;1200;23250;-75
2021/04/10 07:21:14;;;;;;;8.05;2.95;;;;;;;9.07;48.80;98440.30;115043;1199;23106;-75
2021/04/10 07:23:53;;;;;;;6.90;3.20;;;;;;;9.21;48.60;98440.90;115135;1201;23231;-75
2021/04/10 07:26:42;;;;;;;6.45;2.95;;;;;;;9.37;47.53;98439.36;115074;1200;23257;-75
2021/04/10 07:29:34;;;;;;;6.10;2.95;;;;;;;9.50;46.71;98439.91;115153;1202;24728;-75
2021/04/10 07:32:40;;;;;;;4.25;2.80;;;;;;;9.66;46.14;98442.97;115171;1203;25978;-75
2021/04/10 07:35:12;;;;;;;6.25;2.70;;;;;;;9.84;45.82;98450.98;115176;1202;23151;-75
2021/04/10 07:37:53;;;;;;;6.95;3.10;;;;;;;9.99;45.42;98445.02;114856;1203;26908;-75
2021/04/10 07:40:50;;;;;;;4.85;2.55;;;;;;;10.15;45.42;98443.42;115008;1202;23097;-75
2021/04/10 07:43:44;;;;;;;6.45;2.35;;;;;;;10.33;44.78;98436.16;115117;1201;26621;-75
2021/04/10 07:46:26;;;;;;;4.80;2.55;;;;;;;10.52;44.92;98429.44;114892;1202;23174;-75
2021/04/10 07:49:13;;;;;;;4.80;2.30;;;;;;;10.70;44.32;98422.93;115104;1200;23171;-75
2021/04/10 07:52:10;;;;;;;6.70;3.10;;;;;;;10.89;44.29;98423.52;115212;1200;26404;-75
2021/04/10 07:54:39;;;;;;;6.35;2.55;;;;;;;11.08;43.67;98432.24;114981;1203;23112;-75
2021/04/10 07:57:09;;;;;;;5.00;2.50;;;;;;;11.26;42.37;98427.60;114920;1202;23126;-75
2021/04/10 07:59:45;;;;;;;5.05;2.70;;;;;;;11.43;42.14;98436.58;115137;1202;23264;-75
2021/04/10 08:02:14;;;;;;;7.65;3.60;;;;;;;11.60;41.31;98428.38;114847;1201;23210;-75
2021/04/10 08:04:53;;;;;;;3.98;2.50;;;;;;;11.76;41.11;98432.13;114909;1202;26025;-75
2021/04/10 08:07:27;;;;;;;;;;;;;;;11.89;41.25;98431.73;115240;1200;23354;-75
2021/04/10 08:10:06;;;;;;;3.90;2.10;;;;;;;12.04;40.83;98422.95;115249;1199;21731;-75
2021/04/10 08:12:36;;;;;;;4.80;2.30;;;;;;;12.21;41.05;98420.11;114992;1198;23166;-75
2021/04/10 08:15:09;;;;;;;4.90;2.90;;;;;;;12.37;41.06;98417.55;115317;1202;23112;-75
2021/04/10 08:17:43;;;;;;;3.95;2.30;;;;;;;12.54;39.66;98415.54;115176;1199;23325;-75
2021/04/10 08:20:24;;;;;;;6.30;2.83;;;;;;;12.70;39.67;98411.86;115028;1202;23112;-75
2021/04/10 08:22:52;;;;;;;5.40;2.75;;;;;;;12.87;38.07;98416.36;115074;1201;23225;-75
2021/04/10 08:25:38;;;;;;;5.57;2.40;;;;;;;13.02;38.28;98415.67;114766;1202;23089;-75
2021/04/10 08:28:05;;;;;;;4.10;2.20;;;;;;;13.16;37.78;98410.58;115086;1199;23106;-75
2021/04/10 08:30:32;;;;;;;5.65;2.60;;;;;;;13.29;37.81;98412.84;115065;1200;23093;-75
2021/04/10 08:32:59;;;;;;;4.35;2.90;;;;;;;13.42;37.26;98414.30;115100;1202;23171;-75
2021/04/10 08:35:26;;;;;;;4.87;2.43;;;;;;;13.56;36.86;98422.88;115104;1202;23112;-75
2021/04/10 08:38:00;;;;;;;3.20;2.40;;;;;;;13.68;36.59;98415.27;115080;1202;23086;-75
2021/04/10 08:40:27;;;;;;;5.70;3.15;;;;;;;13.82;36.79;98413.69;115102;1200;24712;-76
2021/04/10 08:43:00;;;;;;;5.00;2.30;;;;;;;13.98;36.82;98411.02;114860;1202;23147;-75
2021/04/10 08:45:33;;;;;;;4.85;2.40;;;;;;;14.14;36.14;98414.63;114849;1200;23161;-76
2021/04/10 08:48:08;;;;;;;4.70;2.35;;;;;;;14.30;36.36;98412.76;115070;1201;23089;-76
2021/04/10 08:50:38;;;;;;;2.40;1.85;;;;;;;14.44;35.34;98408.40;115041;1201;23093;-75
2021/04/10 08:53:08;;;;;;;5.77;2.10;;;;;;;14.58;33.66;98408.73;115100;1200;23112;-75
2021/04/10 08:55:38;;;;;;;5.30;2.60;;;;;;;14.71;34.02;98397.20;115065;1200;23090;-75
2021/04/10 08:58:30;;;;;;;4.10;2.20;;;;;;;14.87;34.06;98399.96;115027;1201;23267;-76
2021/04/10 09:00:59;;;;;;;4.25;2.20;;;;;;;15.01;33.12;98406.53;115063;1202;24872;-75
2021/04/10 09:03:45;;;;;;;;;;;;;;;15.14;32.44;98402.43;114877;1204;26035;-76
2021/04/10 09:06:13;;;;;;;3.40;2.30;;;;;;;15.28;32.61;98394.42;114800;1200;25834;-76
2021/04/10 09:08:41;;;;;;;2.67;2.10;;;;;;;15.43;33.07;98396.33;115143;1200;23171;-76
2021/04/10 09:11:19;;;;;;;5.07;2.43;;;;;;;15.56;32.49;98390.24;115108;1202;23156;-76
2021/04/10 09:13:53;;;;;;;2.00;1.50;;;;;;;15.70;31.49;98384.98;114789;1199;26587;-75
2021/04/10 09:16:34;;;;;;;4.80;2.40;;;;;;;15.83;31.47;98389.08;114842;1203;25993;-76
2021/04/10 09:19:13;;;;;;;4.75;2.30;;;;;;;15.94;30.19;98401.67;115079;1201;24881;-76
2021/04/10 09:22:04;;;;;;;5.35;2.95;;;;;;;16.06;30.37;98393.93;115065;1202;23092;-76
2021/04/10 09:24:45;;;;;;;4.60;2.20;;;;;;;16.19;29.64;98392.48;115123;1199;23112;-76
2021/04/10 09:27:28;;;;;;;3.17;2.00;;;;;;;16.32;30.83;98396.52;115125;1200;23146;-76
2021/04/10 09:29:58;;;;;;;5.05;2.05;;;;;;;16.50;30.81;98400.52;114874;1200;23194;-74
2021/04/10 09:32:45;;;;;;;2.88;1.90;;;;;;;16.60;30.22;98396.89;115070;1202;23103;-75
2021/04/10 09:35:18;;;;;;;3.73;2.00;;;;;;;16.71;30.20;98387.45;115051;1202;27185;-75
2021/04/10 09:37:47;;;;;;;4.07;2.03;;;;;;;16.78;30.07;98387.94;115163;1202;27265;-75
2021/04/10 09:40:26;;;;;;;4.70;2.15;;;;;;;16.89;30.24;98395.05;115078;1200;24724;-75
2021/04/10 09:43:13;;;;;;;6.98;3.10;;;;;;;17.01;28.91;98386.40;114858;1202;23090;-75
2021/04/10 09:45:41;;;;;;;7.88;3.20;;;;;;;17.14;30.16;98390.43;114848;1202;27271;-75
2021/04/10 09:48:11;;;;;;;10.28;4.70;;;;;;;17.25;29.27;98388.40;115112;1202;23127;-75
2021/04/10 09:50:59;;;;;;;10.70;3.93;;;;;;;17.36;28.70;98392.67;114862;1199;23183;-75
2021/04/10 09:53:28;;;;;;;10.93;4.58;;;;;;;17.45;27.56;98390.11;114985;1202;27300;-75
2021/04/10 09:56:01;;;;;;;3.50;2.20;;;;;;;17.52;27.68;98387.83;114858;1200;23119;-75
2021/04/10 09:58:46;;;;;;;4.10;2.10;;;;;;;17.61;28.38;98391.57;114876;1199;23118;-75
2021/04/10 10:01:16;;;;;;;5.10;3.20;;;;;;;17.70;26.33;98388.19;115055;1200;27210;-75
2021/04/10 10:03:46;;;;;;;6.63;2.30;;;;;;;17.76;27.36;98386.99;114921;1201;23093;-74
2021/04/10 10:06:26;;;;;;;3.90;2.10;;;;;;;17.85;27.08;98382.50;114813;1203;23253;-74
2021/04/10 10:08:54;;;;;;;5.98;1.88;;;;;;;17.96;27.85;98383.22;114833;1202;23108;-75
2021/04/10 10:11:21;;;;;;;4.05;1.80;;;;;;;18.09;28.03;98374.20;114814;1202;23260;-75
2021/04/10 10:13:49;;;;;;;3.58;1.95;;;;;;;18.26;27.41;98370.14;114743;1202;23102;-74
2021/04/10 10:16:30;;;;;;;2.50;1.68;;;;;;;18.40;26.39;98380.11;114766;1202;24905;-75
2021/04/10 10:18:57;;;;;;;2.58;1.40;;;;;;;18.54;27.56;98377.42;115119;1202;23112;-76
2021/04/10 10:21:25;;;;;;;3.57;1.83;;;;;;;18.67;26.43;98380.55;114875;1202;27445;-74
2021/04/10 10:23:59;;;;;;;4.15;1.53;;;;;;;18.74;26.04;98376.27;115062;1202;23086;-75
2021/04/10 10:26:36;;;;;;;3.93;1.50;;;;;;;18.85;26.35;98365.91;114821;1200;23174;-75
2021/04/10 10:29:07;;;;;;;2.60;1.55;;;;;;;18.95;26.06;98365.75;115134;1200;27326;-75
2021/04/10 10:31:54;;;;;;;2.18;1.30;;;;;;;19.03;25.70;98366.17;115050;1202;23247;-75
2021/04/10 10:34:26;;;;;;;2.83;1.40;;;;;;;19.13;26.54;98350.25;115013;1202;27201;-75
2021/04/10 10:36:54;;;;;;;2.33;1.35;;;;;;;19.27;25.13;98349.46;115079;1200;24764;-76
2021/04/10 10:39:29;;;;;;;5.23;1.73;;;;;;;19.32;25.32;98357.66;115069;1200;23222;-76
2021/04/10 10:42:01;;;;;;;4.10;1.63;;;;;;;19.32;24.55;98365.94;115017;1200;24253;-76
2021/04/10 10:44:29;;;;;;;3.50;1.40;;;;;;;19.32;25.10;98357.66;115033;1200;23117;-75
2021/04/10 10:47:11;;;;;;;2.60;1.53;;;;;;;19.32;23.27;98366.75;114887;1202;23166;-76
2021/04/10 10:49:38;;;;;;;2.18;1.40;;;;;;;19.34;24.24;98358.16;115071;1199;23106;-75
2021/04/10 10:52:06;;;;;;;9.33;2.23;;;;;;;19.42;24.90;98351.09;114822;1200;23093;-75
2021/04/10 10:54:35;;;;;;;3.10;1.40;;;;;;;19.49;23.77;98360.61;114779;1200;23135;-75
2021/04/10 10:57:17;;;;;;;5.33;1.90;;;;;;;19.58;23.54;98360.72;114867;1203;27227;-75
2021/04/10 10:59:45;;;;;;;2.63;1.63;;;;;;;19.64;23.83;98353.98;115074;1202;23081;-75
2021/04/10 11:02:19;;;;;;;2.77;1.40;;;;;;;19.72;24.93;98355.19;115018;1202;24756;-75
2021/04/10 11:04:47;;;;;;;2.80;1.40;;;;;;;19.85;23.80;98356.36;115060;1202;23117;-75
2021/04/10 11:07:22;;;;;;;1.65;1.35;;;;;;;19.89;23.32;98352.66;115084;1202;23179;-75
2021/04/10 11:09:50;;;;;;;3.43;1.73;;;;;;;19.93;23.24;98343.75;114774;1201;25955;-75
2021/04/10 11:12:17;;;;;;;3.23;1.50;;;;;;;19.93;22.94;98349.28;114827;1200;23116;-75
2021/04/10 11:14:47;;;;;;;4.07;1.60;;;;;;;19.98;24.02;98352.75;114855;1198;26281;-75
2021/04/10 11:17:32;;;;;;;4.38;1.43;;;;;;;20.09;23.73;98359.67;114840;1202;23093;-75
2021/04/10 11:20:00;;;;;;;2.43;1.70;;;;;;;20.17;23.40;98358.14;115183;1202;23089;-75
2021/04/10 11:22:27;;;;;;;2.67;1.37;;;;;;;20.22;22.75;98348.90;114835;1201;23093;-75
2021/04/10 11:25:00;;;;;;;2.10;1.48;;;;;;;20.25;23.65;98362.92;114916;1202;23250;-75
2021/04/10 11:27:34;;;;;;;3.00;1.60;;;;;;;20.29;23.23;98352.05;114869;1202;26686;-75
2021/04/10 11:30:09;;;;;;;1.88;1.60;;;;;;;20.32;22.91;98356.16;115138;1201;23676;-75
2021/04/10 11:32:43;;;;;;;3.85;1.60;;;;;;;20.38;23.21;98354.89;115049;1200;23150;-76
2021/04/10 11:35:22;;;;;;;2.95;1.50;;;;;;;20.44;22.69;98346.17;114757;1202;27230;-75
2021/04/10 11:37:54;;;;;;;3.28;1.40;;;;;;;20.51;21.93;98344.94;114806;1201;23105;-76
2021/04/10 11:40:24;;;;;;;5.48;1.65;;;;;;;20.51;22.45;98348.52;115052;1202;23089;-76
2021/04/10 11:43:13;;;;;;;3.05;1.60;;;;;;;20.60;23.47;98346.63;115058;1202;23192;-76
2021/04/10 11:45:47;;;;;;;3.45;1.40;;;;;;;20.69;21.66;98340.38;115141;1202;23371;-76
2021/04/10 11:48:23;;;;;;;4.95;1.45;;;;;;;20.72;22.50;98342.52;115157;1200;26442;-76
2021/04/10 11:50:54;;;;;;;3.28;1.78;;;;;;;20.71;22.44;98349.98;115154;1202;26125;-76